Time;durP1;ratioP1;P1;durP2;ratioP2;P2;SDS_P1;SDS_P2;PMS_P1;PMS_P2;Temp;Humidity;BMP_temperature;BMP_pressure;BME280_temperature;BME280_humidity;BME280_pressure;Samples;Min_cycle;Max_cycle;Signal;HPM_P1;HPM_P2
2022/06/10 00:01:57;;;;;;;16.17;8.90;;;;;;;10.48;100.00;99923.72;5066669;28;20104;-54
2022/06/10 00:04:22;;;;;;;15.77;9.50;;;;;;;10.52;100.00;99920.38;5067634;28;20032;-54
2022/06/10 00:06:47;;;;;;;14.38;8.90;;;;;;;10.50;100.00;99913.63;5066404;28;20035;-53
2022/06/10 00:09:13;;;;;;;16.35;8.93;;;;;;;10.52;100.00;99914.22;5067288;28;20052;-52
2022/06/10 00:11:38;;;;;;;12.07;9.32;;;;;;;10.40;100.00;99916.00;5071644;28;20107;-54
2022/06/10 00:14:04;;;;;;;16.80;9.40;;;;;;;10.40;100.00;99924.84;5069129;28;20504;-54
2022/06/10 00:16:29;;;;;;;14.98;9.60;;;;;;;10.46;100.00;99915.94;5052178;28;20024;-50
2022/06/10 00:18:56;;;;;;;17.30;10.68;;;;;;;10.44;100.00;99917.19;5070457;28;20411;-54
2022/06/10 00:21:22;;;;;;;21.83;11.02;;;;;;;10.50;100.00;99917.09;5071085;28;20032;-53
2022/06/10 00:23:47;;;;;;;16.05;9.77;;;;;;;10.50;100.00;99930.50;5067443;28;20028;-53
2022/06/10 00:26:13;;;;;;;17.38;10.18;;;;;;;10.55;100.00;99925.28;5071475;28;20029;-53
2022/06/10 00:28:40;;;;;;;17.88;9.88;;;;;;;10.42;100.00;99925.47;5070743;28;20446;-54
2022/06/10 00:31:05;;;;;;;14.48;8.63;;;;;;;10.14;100.00;99932.13;5037207;28;20032;-52
2022/06/10 00:33:33;;;;;;;10.98;8.45;;;;;;;9.99;100.00;99931.66;5070862;28;20035;-54
2022/06/10 00:35:59;;;;;;;15.30;9.23;;;;;;;9.90;100.00;99924.94;5070282;28;20035;-53
2022/06/10 00:38:24;;;;;;;20.13;9.65;;;;;;;9.80;100.00;99916.59;5069227;28;20475;-53
2022/06/10 00:40:51;;;;;;;14.05;9.73;;;;;;;9.72;100.00;99910.50;5069814;28;20508;-51
2022/06/10 00:43:19;;;;;;;17.25;11.10;;;;;;;9.76;100.00;99912.72;5069667;28;20025;-54
2022/06/10 00:45:59;;;;;;;16.98;10.60;;;;;;;9.93;100.00;99922.66;5068820;28;20020;-54
2022/06/10 00:48:43;;;;;;;14.90;9.82;;;;;;;10.08;100.00;99919.63;5065652;28;20032;-52
2022/06/10 00:51:23;;;;;;;21.38;12.35;;;;;;;10.15;100.00;99920.34;5048569;28;20033;-51
2022/06/10 00:54:09;;;;;;;18.08;10.82;;;;;;;10.21;100.00;99920.50;5063555;28;20032;-53
2022/06/10 00:56:34;;;;;;;14.85;8.75;;;;;;;9.68;100.00;99921.84;5038568;28;20150;-53
2022/06/10 00:59:20;;;;;;;13.25;7.45;;;;;;;9.66;100.00;99919.41;5069274;28;20024;-54
2022/06/10 01:01:46;;;;;;;13.20;8.82;;;;;;;9.39;100.00;99926.84;5044056;28;20421;-53
2022/06/10 01:04:11;;;;;;;16.42;9.27;;;;;;;9.41;100.00;99926.59;5069796;28;20028;-53
2022/06/10 01:06:37;;;;;;;12.38;9.27;;;;;;;9.42;100.00;99925.59;5070384;28;20051;-52
2022/06/10 01:09:02;;;;;;;16.58;9.63;;;;;;;9.56;100.00;99927.13;5069081;28;20040;-52
2022/06/10 01:11:31;;;;;;;22.45;11.27;;;;;;;9.58;100.00;99930.38;5069217;28;20031;-52
2022/06/10 01:14:03;;;;;;;14.48;10.50;;;;;;;9.48;100.00;99927.38;5062622;28;20056;-53
2022/06/10 01:16:59;;;;;;;16.70;9.98;;;;;;;9.50;100.00;99922.63;5052316;28;20068;-54
2022/06/10 01:19:33;;;;;;;13.93;9.70;;;;;;;9.48;100.00;99922.03;5030936;28;20020;-53
2022/06/10 01:22:14;;;;;;;15.40;9.52;;;;;;;9.41;100.00;99923.94;5069322;28;20032;-52
2022/06/10 01:25:04;;;;;;;15.52;9.70;;;;;;;9.17;100.00;99929.03;5065915;28;20067;-52
2022/06/10 01:27:53;;;;;;;15.60;9.35;;;;;;;9.17;100.00;99926.38;5066676;28;20064;-53
2022/06/10 01:30:39;;;;;;;14.10;9.43;;;;;;;9.17;100.00;99928.22;5024909;28;20037;-51
2022/06/10 01:33:43;;;;;;;14.25;10.25;;;;;;;9.31;100.00;99935.13;5068809;28;20290;-54
2022/06/10 01:36:46;;;;;;;17.92;10.90;;;;;;;9.31;100.00;99935.13;5063046;28;20039;-51
2022/06/10 01:39:24;;;;;;;18.27;10.05;;;;;;;9.22;100.00;99931.06;5064570;28;20040;-52
2022/06/10 01:42:07;;;;;;;13.73;10.30;;;;;;;9.15;100.00;99930.28;5040143;28;20082;-54
2022/06/10 01:44:35;;;;;;;19.02;9.27;;;;;;;9.15;100.00;99925.75;5069556;28;20095;-54
2022/06/10 01:47:11;;;;;;;14.48;8.80;;;;;;;9.21;100.00;99924.91;5049791;28;20028;-53
2022/06/10 01:49:43;;;;;;;14.85;9.82;;;;;;;9.25;100.00;99925.28;5039636;28;20033;-54
2022/06/10 01:52:19;;;;;;;14.10;8.68;;;;;;;9.18;100.00;99929.84;5038675;28;20115;-55
2022/06/10 01:55:22;;;;;;;12.85;8.13;;;;;;;9.03;100.00;99932.81;5029600;28;20046;-53
2022/06/10 01:58:11;;;;;;;14.23;9.35;;;;;;;8.85;100.00;99926.34;5068315;28;20027;-53
2022/06/10 02:00:38;;;;;;;13.75;9.18;;;;;;;8.74;100.00;99928.91;5063573;28;20032;-53
2022/06/10 02:03:24;;;;;;;12.65;8.70;;;;;;;8.72;100.00;99923.75;5021521;28;20462;-54
2022/06/10 02:05:52;;;;;;;19.75;8.90;;;;;;;8.70;100.00;99931.16;5047552;28;20021;-54
2022/06/10 02:08:27;;;;;;;12.27;8.30;;;;;;;8.67;100.00;99923.56;5035110;28;20044;-53
2022/06/10 02:11:10;;;;;;;17.05;9.45;;;;;;;8.83;100.00;99925.72;5040276;28;20040;-51
2022/06/10 02:13:53;;;;;;;18.23;9.48;;;;;;;8.85;100.00;99926.34;5023434;28;20040;-52
2022/06/10 02:16:26;;;;;;;14.75;10.18;;;;;;;8.93;100.00;99925.28;5062885;28;20033;-52
2022/06/10 02:19:21;;;;;;;16.08;9.02;;;;;;;8.91;100.00;99931.88;5027231;28;20025;-51
2022/06/10 02:21:48;;;;;;;12.27;7.82;;;;;;;8.83;100.00;99931.09;5065558;28;20024;-53
2022/06/10 02:24:17;;;;;;;16.83;9.23;;;;;;;8.84;100.00;99931.94;5048267;28;20089;-51
2022/06/10 02:26:43;;;;;;;16.05;9.80;;;;;;;8.84;100.00;99926.59;5067675;28;20481;-52
2022/06/10 02:29:11;;;;;;;30.95;9.65;;;;;;;8.71;100.00;99929.28;5067326;28;20024;-54
2022/06/10 02:31:54;;;;;;;17.15;9.43;;;;;;;8.72;100.00;99931.78;5036267;28;20037;-51
2022/06/10 02:34:19;;;;;;;14.40;8.70;;;;;;;8.80;100.00;99928.84;5035649;28;20033;-54
2022/06/10 02:37:03;;;;;;;12.90;8.98;;;;;;;8.77;100.00;99939.97;5068190;28;20035;-54
2022/06/10 02:39:37;;;;;;;15.52;9.00;;;;;;;8.89;100.00;99944.66;5066513;28;20508;-54
2022/06/10 02:42:24;;;;;;;13.93;9.05;;;;;;;8.88;100.00;99946.47;5057083;28;20032;-54
2022/06/10 02:45:08;;;;;;;11.18;8.02;;;;;;;8.93;100.00;99943.19;5047526;28;20056;-54
2022/06/10 02:47:36;;;;;;;11.80;8.48;;;;;;;8.94;100.00;99950.19;5049573;28;20108;-54
2022/06/10 02:50:02;;;;;;;13.43;8.25;;;;;;;8.99;100.00;99950.34;5067288;28;20058;-54
2022/06/10 02:52:32;;;;;;;14.18;8.32;;;;;;;9.01;100.00;99958.97;5039127;28;20375;-54
2022/06/10 02:54:57;;;;;;;15.23;8.07;;;;;;;8.91;100.00;99955.94;5067832;28;20112;-54
2022/06/10 03:01:11;;;;;;;10.60;7.93;;;;;;;8.93;100.00;99954.69;5032389;28;20532;-55
2022/06/10 03:03:11;;;;;;;11.13;7.78;;;;;;;8.78;100.00;99956.81;5052861;28;20090;-53
2022/06/10 03:06:07;;;;;;;11.38;8.35;;;;;;;8.78;100.00;99962.97;5049244;28;20020;-53
2022/06/10 03:08:39;;;;;;;14.38;8.88;;;;;;;8.67;100.00;99965.53;5057208;28;20095;-54
2022/06/10 03:11:26;;;;;;;16.10;9.05;;;;;;;8.66;100.00;99953.97;5046751;28;20494;-54
2022/06/10 03:14:06;;;;;;;18.35;9.65;;;;;;;8.69;100.00;99961.59;5066483;28;20451;-52
2022/06/10 03:16:50;;;;;;;16.80;9.88;;;;;;;8.79;100.00;99969.16;5065508;28;20041;-52
2022/06/10 03:19:43;;;;;;;17.40;10.70;;;;;;;8.85;100.00;99960.28;5053852;28;20033;-54
2022/06/10 03:22:12;;;;;;;19.95;10.73;;;;;;;8.85;100.00;99963.78;5062523;28;20035;-54
2022/06/10 03:24:46;;;;;;;15.98;9.75;;;;;;;8.81;100.00;99961.72;5067947;28;20103;-54
2022/06/10 03:27:29;;;;;;;15.90;9.23;;;;;;;8.67;100.00;99965.53;5067154;28;20119;-54
2022/06/10 03:30:10;;;;;;;15.30;9.10;;;;;;;8.79;100.00;99964.63;5064778;28;20054;-54
2022/06/10 03:32:43;;;;;;;;;;;;;;;9.02;100.00;99971.31;5049747;28;20076;-54
2022/06/10 03:35:21;;;;;;;11.75;8.30;;;;;;;9.30;100.00;99973.59;5056717;28;20469;-52
2022/06/10 03:37:47;;;;;;;15.40;8.27;;;;;;;9.58;100.00;99977.72;5039551;28;20414;-54
2022/06/10 03:40:21;;;;;;;16.75;8.20;;;;;;;9.58;100.00;99993.78;5065686;28;20453;-53
2022/06/10 03:42:49;;;;;;;26.40;8.80;;;;;;;9.58;100.00;99989.25;5061285;28;20025;-53
2022/06/10 03:45:18;;;;;;;137.23;11.10;;;;;;;9.32;100.00;99989.44;5070052;28;20032;-54
2022/06/10 03:47:44;;;;;;;15.20;8.35;;;;;;;9.19;100.00;99988.50;5070854;28;20123;-53
2022/06/10 03:50:14;;;;;;;92.70;9.27;;;;;;;9.18;100.00;99983.34;5071756;28;20103;-54
2022/06/10 03:52:39;;;;;;;16.95;9.20;;;;;;;9.10;100.00;99991.63;5049899;28;20037;-54
2022/06/10 03:55:05;;;;;;;41.92;10.27;;;;;;;9.14;100.00;99988.31;5070048;28;20021;-54
2022/06/10 03:57:31;;;;;;;28.08;10.13;;;;;;;9.31;100.00;99994.00;5071233;28;20017;-54
2022/06/10 03:59:56;;;;;;;21.58;9.98;;;;;;;9.35;100.00;99989.81;5071179;28;20470;-52
2022/06/10 04:02:22;;;;;;;19.05;10.13;;;;;;;9.61;100.00;99998.69;5053775;28;20059;-53
2022/06/10 04:04:47;;;;;;;15.10;9.70;;;;;;;9.94;100.00;99999.28;5070566;28;20457;-60
2022/06/10 04:07:14;;;;;;;16.73;9.63;;;;;;;11.00;100.00;100000.00;5069780;28;20371;-51
2022/06/10 04:09:40;;;;;;;12.88;8.73;;;;;;;12.45;100.00;100002.50;5070113;28;20028;-51
2022/06/10 04:12:05;;;;;;;17.88;7.25;;;;;;;12.29;92.33;100015.59;5071072;28;20082;-53
2022/06/10 04:14:31;;;;;;;10.88;6.55;;;;;;;11.78;94.91;100014.38;5071494;28;20099;-53
2022/06/10 04:16:57;;;;;;;12.77;6.90;;;;;;;10.93;98.24;100010.03;5070007;28;20035;-53
2022/06/10 04:19:22;;;;;;;15.43;6.93;;;;;;;10.54;100.00;100012.13;5065038;28;20426;-52
2022/06/10 04:21:48;;;;;;;9.77;6.20;;;;;;;11.47;100.00;100022.72;5045561;28;20027;-54
2022/06/10 04:24:13;;;;;;;11.73;6.53;;;;;;;11.65;96.79;100017.25;5065553;28;20477;-54
2022/06/10 04:26:39;;;;;;;9.98;6.18;;;;;;;11.83;97.08;100021.72;5069419;28;20025;-55
2022/06/10 04:29:04;;;;;;;7.20;5.57;;;;;;;11.70;96.68;100012.03;5068096;28;20036;-54
2022/06/10 04:31:29;;;;;;;10.82;6.00;;;;;;;11.27;99.39;100026.50;5070839;28;20029;-54
2022/06/10 04:33:55;;;;;;;12.63;6.07;;;;;;;11.83;95.22;100017.19;5069188;28;20050;-54
2022/06/10 04:36:20;;;;;;;15.18;6.13;;;;;;;11.42;96.99;100021.53;5070076;28;20410;-54
2022/06/10 04:38:46;;;;;;;29.33;7.18;;;;;;;11.12;99.37;100031.44;5068970;28;20037;-53
2022/06/10 04:41:11;;;;;;;11.57;6.75;;;;;;;11.23;100.00;100030.66;5068852;28;20020;-53
2022/06/10 04:43:37;;;;;;;12.15;6.47;;;;;;;11.21;100.00;100030.91;5068069;28;20769;-53
2022/06/10 04:46:05;;;;;;;12.43;7.05;;;;;;;10.98;100.00;100041.50;5070248;28;20029;-54
2022/06/10 04:48:30;;;;;;;25.55;7.05;;;;;;;10.62;100.00;100040.47;5070019;28;20070;-54
2022/06/10 04:50:56;;;;;;;24.35;7.45;;;;;;;10.72;100.00;100037.28;5070047;28;20024;-54
2022/06/10 04:53:21;;;;;;;15.45;7.78;;;;;;;10.57;100.00;100034.97;5070272;28;20036;-54
2022/06/10 04:55:47;;;;;;;14.88;7.65;;;;;;;11.08;100.00;100031.06;5069734;28;20040;-54
2022/06/10 04:58:12;;;;;;;15.68;7.30;;;;;;;11.29;100.00;100037.81;5070296;28;20028;-53
2022/06/10 05:00:40;;;;;;;35.15;8.07;;;;;;;10.69;100.00;100038.56;5043412;28;20068;-54
2022/06/10 05:03:06;;;;;;;18.00;7.72;;;;;;;10.91;100.00;100052.34;5049164;28;20020;-54
2022/06/10 05:05:32;;;;;;;9.80;6.82;;;;;;;11.49;100.00;100044.78;5042098;28;20033;-53
2022/06/10 05:07:57;;;;;;;11.85;7.78;;;;;;;11.49;100.00;100050.16;5069270;28;20094;-54
2022/06/10 05:10:24;;;;;;;12.55;7.50;;;;;;;12.04;100.00;100041.91;5070051;28;20155;-54
2022/06/10 05:12:50;;;;;;;14.27;7.45;;;;;;;12.08;98.13;100045.75;5068723;28;20127;-55
2022/06/10 05:15:19;;;;;;;10.65;6.72;;;;;;;12.12;96.50;100052.28;5069432;28;20023;-55
2022/06/10 05:17:44;;;;;;;10.32;6.93;;;;;;;12.32;95.53;100051.94;5069274;28;20043;-53
2022/06/10 05:20:11;;;;;;;23.25;6.63;;;;;;;12.11;96.69;100039.94;5069329;28;20449;-54
2022/06/10 05:22:37;;;;;;;9.48;6.82;;;;;;;11.96;100.00;100048.44;5039327;28;20029;-53
2022/06/10 05:25:03;;;;;;;9.48;6.82;;;;;;;12.13;97.21;100039.66;5066870;28;20486;-54
2022/06/10 05:27:28;;;;;;;22.67;7.32;;;;;;;11.85;98.77;100039.25;5068974;28;20033;-54
2022/06/10 05:29:54;;;;;;;8.75;7.07;;;;;;;12.26;99.55;100048.34;5069093;28;20025;-55
2022/06/10 05:32:19;;;;;;;11.05;7.07;;;;;;;12.45;96.75;100046.34;5067307;28;20475;-54
2022/06/10 05:34:45;;;;;;;10.63;6.97;;;;;;;12.19;97.68;100047.63;5066713;28;20040;-57
2022/06/10 05:37:21;;;;;;;10.00;6.93;;;;;;;12.02;96.70;100052.88;5069114;28;20036;-54
2022/06/10 05:39:47;;;;;;;9.02;6.57;;;;;;;12.51;96.63;100055.34;5064556;28;20025;-54
2022/06/10 05:42:12;;;;;;;11.85;7.80;;;;;;;13.24;94.62;100059.28;5035280;28;20556;-54
2022/06/10 05:44:49;;;;;;;9.52;6.93;;;;;;;12.55;95.60;100059.19;5067282;28;20021;-52
2022/06/10 05:47:23;;;;;;;11.75;7.05;;;;;;;13.23;93.57;100052.28;5045688;28;20123;-54
2022/06/10 05:49:51;;;;;;;14.23;7.43;;;;;;;13.90;90.83;100062.38;5053426;28;20105;-54
2022/06/10 05:52:17;;;;;;;10.38;6.60;;;;;;;13.67;89.34;100062.53;5069486;28;20032;-54
2022/06/10 05:54:44;;;;;;;8.23;6.22;;;;;;;14.79;84.39;100064.28;5045539;28;20031;-51
2022/06/10 05:57:10;;;;;;;9.63;5.75;;;;;;;14.55;85.43;100061.00;5068543;28;20031;-51
2022/06/10 05:59:35;;;;;;;13.20;6.72;;;;;;;14.12;86.41;100061.66;5067942;28;20032;-54
2022/06/10 06:02:02;;;;;;;8.73;6.00;;;;;;;15.84;80.90;100068.72;5033666;28;20036;-54
2022/06/10 06:04:28;;;;;;;14.65;5.88;;;;;;;14.11;82.85;100068.94;5069171;28;20078;-53
2022/06/10 06:06:53;;;;;;;9.77;5.63;;;;;;;14.19;85.74;100068.53;5066892;28;20115;-54
2022/06/10 06:09:19;;;;;;;7.75;5.90;;;;;;;15.04;81.64;100065.69;5066214;28;20041;-54
2022/06/10 06:11:46;;;;;;;7.55;5.43;;;;;;;16.51;76.45;100065.44;5024955;28;20047;-54
2022/06/10 06:14:11;;;;;;;8.13;5.65;;;;;;;15.53;79.18;100076.50;5068464;28;20046;-54
2022/06/10 06:16:37;;;;;;;8.43;5.07;;;;;;;14.89;81.29;100080.59;5065061;28;20443;-54
2022/06/10 06:19:02;;;;;;;5.85;4.45;;;;;;;18.87;68.65;100071.28;5066477;28;20031;-55
2022/06/10 06:21:28;;;;;;;7.88;4.75;;;;;;;18.39;68.64;100074.34;5047774;28;20041;-54
2022/06/10 06:23:53;;;;;;;6.50;4.82;;;;;;;16.02;74.58;100076.44;5043714;28;20020;-55
2022/06/10 06:26:19;;;;;;;8.30;5.05;;;;;;;15.14;79.21;100076.59;5062862;28;20021;-54
2022/06/10 06:28:44;;;;;;;10.43;5.28;;;;;;;16.99;75.13;100074.38;5065594;28;20029;-54
2022/06/10 06:31:10;;;;;;;7.43;4.85;;;;;;;15.87;77.79;100071.72;5062037;28;20029;-55
2022/06/10 06:33:35;;;;;;;9.75;5.05;;;;;;;15.70;78.60;100069.16;5067160;28;20028;-54
2022/06/10 06:36:01;;;;;;;7.63;4.25;;;;;;;18.12;69.02;100074.66;5048843;28;20478;-54
2022/06/10 06:38:27;;;;;;;6.05;4.00;;;;;;;19.38;65.75;100074.59;5066080;28;20066;-54
2022/06/10 06:40:52;;;;;;;7.00;4.30;;;;;;;19.28;66.12;100071.13;5050339;28;20117;-55
2022/06/10 06:43:17;;;;;;;6.80;4.03;;;;;;;21.29;59.49;100078.06;5066884;28;20115;-55
2022/06/10 06:45:43;;;;;;;5.75;3.88;;;;;;;19.24;62.42;100078.22;5068029;28;20474;-54
2022/06/10 06:48:09;;;;;;;6.82;3.58;;;;;;;22.56;54.93;100079.91;5017549;28;20035;-55
2022/06/10 06:50:35;;;;;;;6.25;3.60;;;;;;;21.82;57.96;100079.00;5067999;28;20538;-55
2022/06/10 06:53:01;;;;;;;8.88;3.50;;;;;;;23.13;52.58;100081.59;5067502;28;20029;-54
2022/06/10 06:55:29;;;;;;;8.82;3.50;;;;;;;21.30;59.25;100089.78;5067060;28;20032;-55
2022/06/10 06:57:55;;;;;;;7.85;3.50;;;;;;;22.55;52.44;100082.97;5067305;28;20028;-56
2022/06/10 07:00:20;;;;;;;8.13;3.40;;;;;;;19.59;62.20;100088.06;5050102;28;20490;-55
2022/06/10 07:02:46;;;;;;;12.70;4.35;;;;;;;21.71;56.46;100083.78;5036415;28;20115;-55
2022/06/10 07:05:12;;;;;;;11.35;3.38;;;;;;;23.41;53.02;100085.06;5067979;28;20115;-55
2022/06/10 07:07:39;;;;;;;5.70;3.08;;;;;;;23.98;50.91;100085.44;5059457;28;20117;-56
2022/06/10 07:10:05;;;;;;;6.80;3.10;;;;;;;24.86;49.12;100081.25;5039352;28;20040;-56
2022/06/10 07:12:31;;;;;;;6.60;3.00;;;;;;;24.86;50.08;100094.94;5068290;28;20413;-55
2022/06/10 07:14:56;;;;;;;5.45;2.75;;;;;;;25.87;48.54;100093.09;5038264;28;20119;-56
2022/06/10 07:17:21;;;;;;;6.22;2.60;;;;;;;24.74;48.68;100095.56;5050173;28;20033;-56
2022/06/10 07:19:48;;;;;;;7.80;3.03;;;;;;;24.01;50.38;100093.03;5072949;28;20043;-54
2022/06/10 07:22:15;;;;;;;6.07;3.13;;;;;;;24.32;51.39;100087.59;5071831;28;20028;-55
2022/06/10 07:24:41;;;;;;;8.90;3.50;;;;;;;24.26;52.44;100094.34;5067291;28;20333;-53
2022/06/10 07:27:07;;;;;;;11.07;3.80;;;;;;;23.98;53.35;100099.13;5067714;28;20029;-54
2022/06/10 07:29:32;;;;;;;13.98;4.07;;;;;;;26.07;48.20;100091.63;5071242;28;20441;-54
2022/06/10 07:31:58;;;;;;;6.65;3.10;;;;;;;26.45;47.70;100094.44;5071923;28;20024;-54
2022/06/10 07:34:23;;;;;;;10.48;3.40;;;;;;;26.55;47.60;100093.31;5071337;28;20019;-54
2022/06/10 07:36:49;;;;;;;9.35;3.42;;;;;;;26.32;49.52;100094.66;5072296;28;20016;-56
2022/06/10 07:39:14;;;;;;;6.22;3.35;;;;;;;27.22;45.79;100094.47;5070757;28;20537;-53
2022/06/10 07:42:00;;;;;;;8.57;4.25;;;;;;;26.05;47.81;100091.13;5068003;28;20045;-55
2022/06/10 07:44:29;;;;;;;11.90;3.50;;;;;;;27.10;46.04;100088.84;5066956;28;20040;-54
2022/06/10 07:46:55;;;;;;;9.05;3.30;;;;;;;27.04;45.78;100092.94;5072526;28;20103;-54
2022/06/10 07:49:21;;;;;;;7.90;3.30;;;;;;;26.32;46.44;100092.69;5058731;28;20065;-52
2022/06/10 07:51:46;;;;;;;10.20;3.38;;;;;;;27.18;45.23;100088.03;5068254;28;20032;-54
2022/06/10 07:54:13;;;;;;;8.00;3.50;;;;;;;27.39;45.16;100084.50;5068524;28;20039;-53
2022/06/10 07:56:39;;;;;;;8.60;3.00;;;;;;;25.17;49.55;100082.03;5052775;28;20032;-54
2022/06/10 07:59:05;;;;;;;8.00;3.00;;;;;;;26.38;46.06;100072.16;5071672;28;20043;-53
2022/06/10 08:01:30;;;;;;;9.63;2.90;;;;;;;27.83;43.84;100068.47;5070381;28;20032;-55
2022/06/10 08:03:56;;;;;;;10.57;2.50;;;;;;;27.24;43.33;100070.19;5071400;28;20020;-54
2022/06/10 08:06:22;;;;;;;7.78;2.53;;;;;;;27.68;41.99;100067.94;5053479;28;20063;-52
2022/06/10 08:08:50;;;;;;;8.95;2.63;;;;;;;28.32;41.95;100065.88;5070750;28;20502;-54
2022/06/10 08:11:16;;;;;;;8.05;2.40;;;;;;;26.02;42.95;100059.63;5070398;28;20036;-55
2022/06/10 08:13:42;;;;;;;6.38;2.20;;;;;;;26.93;41.66;100059.50;5070961;28;20382;-54
2022/06/10 08:16:07;;;;;;;7.60;2.13;;;;;;;26.47;42.55;100064.69;5070310;28;20024;-54
2022/06/10 08:18:33;;;;;;;6.43;2.03;;;;;;;25.02;44.23;100066.00;5050490;28;20040;-54
2022/06/10 08:23:43;;;;;;;9.55;2.38;;;;;;;22.35;50.53;100067.75;5053876;28;20094;-54
2022/06/10 08:26:09;;;;;;;9.68;2.33;;;;;;;21.31;54.66;100064.94;5071088;28;20028;-54
2022/06/10 08:28:35;;;;;;;8.18;2.58;;;;;;;22.03;52.87;100068.53;5053416;28;20124;-53
2022/06/10 08:31:01;;;;;;;8.02;2.33;;;;;;;22.31;51.45;100064.00;5070074;28;20063;-54
2022/06/10 08:33:26;;;;;;;8.43;2.28;;;;;;;20.82;55.11;100071.56;5070239;28;20036;-52
2022/06/10 08:35:52;;;;;;;8.52;2.20;;;;;;;22.02;53.07;100067.75;5069974;28;20592;-53
2022/06/10 08:38:19;;;;;;;9.32;2.38;;;;;;;21.87;51.96;100070.72;5069285;28;20082;-56
2022/06/10 08:40:44;;;;;;;9.93;2.10;;;;;;;22.62;51.45;100072.44;5070730;28;20025;-54
2022/06/10 08:43:23;;;;;;;8.52;2.05;;;;;;;21.71;52.76;100073.66;5050164;28;20043;-53
2022/06/10 08:46:07;;;;;;;6.53;2.20;;;;;;;20.09;55.90;100072.50;5045150;28;20032;-54
2022/06/10 08:49:20;;;;;;;7.30;2.03;;;;;;;22.09;51.20;100067.34;5068842;28;20025;-55
2022/06/10 08:51:58;;;;;;;6.90;2.10;;;;;;;20.92;53.27;100067.06;4988727;28;20046;-54
2022/06/10 08:54:32;;;;;;;11.48;2.42;;;;;;;19.46;58.53;100073.19;4988589;28;20038;-56
2022/06/10 08:56:58;;;;;;;9.98;2.22;;;;;;;20.75;57.14;100068.38;5026105;28;20119;-52
2022/06/10 08:59:36;;;;;;;7.88;2.40;;;;;;;21.07;56.12;100077.81;5051938;28;20387;-53
2022/06/10 09:02:12;;;;;;;12.13;2.63;;;;;;;20.34;56.49;100068.75;5045399;28;20505;-53
2022/06/10 09:04:53;;;;;;;9.70;2.20;;;;;;;20.73;55.06;100064.31;5056290;28;20115;-54
2022/06/10 09:07:29;;;;;;;6.90;1.92;;;;;;;21.90;55.30;100065.47;5053588;28;20023;-54
2022/06/10 09:09:57;;;;;;;8.82;2.53;;;;;;;22.52;53.97;100070.72;5068965;28;20402;-54
2022/06/10 09:12:41;;;;;;;14.00;3.45;;;;;;;23.09;51.08;100075.94;5046849;28;20036;-54
2022/06/10 09:15:06;;;;;;;9.40;2.20;;;;;;;22.90;52.17;100070.53;5065083;28;20041;-52
2022/06/10 09:17:36;;;;;;;8.73;1.85;;;;;;;22.49;51.96;100073.22;5051127;28;20454;-55
2022/06/10 09:20:16;;;;;;;8.02;1.98;;;;;;;23.31;50.01;100072.44;5048092;28;20029;-54
2022/06/10 09:22:44;;;;;;;5.75;2.20;;;;;;;23.78;50.63;100075.78;5039262;28;20049;-54
2022/06/10 09:25:11;;;;;;;10.63;2.80;;;;;;;24.04;52.97;100069.69;5059803;28;20033;-54
2022/06/10 09:27:44;;;;;;;8.18;2.55;;;;;;;23.48;53.35;100069.84;5065391;28;20035;-54
2022/06/10 09:30:11;;;;;;;7.93;2.70;;;;;;;24.00;53.24;100079.66;5069006;28;20028;-53
2022/06/10 09:32:55;;;;;;;7.95;2.33;;;;;;;23.62;51.11;100075.31;5066149;28;20034;-54
2022/06/10 09:35:39;;;;;;;8.13;2.30;;;;;;;22.87;50.96;100073.88;5046017;28;20039;-54
2022/06/10 09:38:25;;;;;;;6.75;2.20;;;;;;;23.38;49.65;100077.50;5066977;28;20032;-54
2022/06/10 09:41:15;;;;;;;15.10;2.22;;;;;;;23.35;49.23;100081.66;5051142;28;20031;-56
2022/06/10 09:43:44;;;;;;;7.55;2.13;;;;;;;23.84;49.16;100074.56;5058426;28;20032;-53
2022/06/10 09:46:12;;;;;;;9.07;2.85;;;;;;;23.71;49.32;100086.31;5061493;28;20036;-55
2022/06/10 09:48:44;;;;;;;10.52;2.30;;;;;;;23.85;48.41;100073.41;5039173;28;20121;-55
2022/06/10 09:51:29;;;;;;;6.35;1.95;;;;;;;23.11;50.55;100072.88;5047246;28;20048;-56
2022/06/10 09:54:16;;;;;;;6.95;2.03;;;;;;;23.59;46.70;100078.66;5045878;28;20029;-56
2022/06/10 09:57:19;;;;;;;6.10;2.08;;;;;;;23.94;44.19;100069.94;5058853;28;20116;-53
2022/06/10 10:00:03;;;;;;;8.25;1.88;;;;;;;24.93;41.15;100063.22;5059861;28;20048;-56
2022/06/10 10:03:00;;;;;;;8.32;2.10;;;;;;;25.52;40.79;100057.38;5060398;28;20036;-54
2022/06/10 10:05:43;;;;;;;14.93;2.22;;;;;;;26.11;39.95;100056.06;5039804;28;20036;-53
2022/06/10 10:08:20;;;;;;;7.60;2.28;;;;;;;26.21;40.36;100061.22;5042443;28;20043;-54
2022/06/10 10:11:12;;;;;;;10.77;1.92;;;;;;;26.32;39.02;100062.47;5045099;28;20039;-53
2022/06/10 10:14:06;;;;;;;6.30;2.03;;;;;;;26.17;39.19;100061.06;5037102;28;20048;-53
2022/06/10 10:16:40;;;;;;;6.40;2.20;;;;;;;25.95;39.83;100059.31;5048931;28;20044;-54
2022/06/10 10:19:10;;;;;;;5.57;1.85;;;;;;;25.17;41.15;100062.03;5028398;28;20075;-53
2022/06/10 10:21:51;;;;;;;8.23;2.50;;;;;;;24.37;40.96;100056.53;5054381;28;20048;-54
2022/06/10 10:24:21;;;;;;;7.72;1.88;;;;;;;24.32;41.36;100051.97;5056675;28;20029;-54
2022/06/10 10:26:49;;;;;;;7.22;1.83;;;;;;;24.32;42.33;100054.72;5046050;28;20020;-52
2022/06/10 10:29:19;;;;;;;6.75;2.13;;;;;;;23.79;42.42;100057.41;5035453;28;20024;-54
2022/06/10 10:32:03;;;;;;;9.63;2.40;;;;;;;24.29;41.81;100058.09;5048510;28;20077;-53
2022/06/10 10:34:36;;;;;;;9.35;2.05;;;;;;;24.85;41.74;100063.19;5057947;28;20429;-54
2022/06/10 10:37:03;;;;;;;8.23;2.20;;;;;;;24.05;42.60;100063.91;5028761;28;20136;-53
2022/06/10 10:39:32;;;;;;;6.93;2.35;;;;;;;24.02;42.79;100053.56;5065292;28;20504;-54
2022/06/10 10:42:00;;;;;;;9.23;2.33;;;;;;;23.15;43.99;100055.56;5066873;28;20024;-53
2022/06/10 10:44:31;;;;;;;10.05;2.22;;;;;;;24.10;44.45;100062.97;5063637;28;20064;-54
2022/06/10 10:47:10;;;;;;;7.20;2.17;;;;;;;23.53;42.80;100066.19;5066340;28;20033;-53
2022/06/10 10:49:41;;;;;;;8.57;2.00;;;;;;;24.11;42.54;100064.56;5062593;28;20024;-53
2022/06/10 10:52:17;;;;;;;9.98;2.13;;;;;;;23.60;43.40;100058.38;5042054;28;20063;-53
2022/06/10 10:54:43;;;;;;;9.85;2.05;;;;;;;23.45;43.70;100056.00;5065807;28;20536;-54
2022/06/10 10:57:22;;;;;;;12.35;2.58;;;;;;;23.50;43.75;100055.06;5028364;28;20035;-54
2022/06/10 10:59:54;;;;;;;12.68;2.58;;;;;;;23.18;44.44;100046.72;5047692;28;20110;-54
2022/06/10 11:02:25;;;;;;;9.63;2.33;;;;;;;23.77;43.67;100046.00;5044348;28;20035;-54
2022/06/10 11:04:51;;;;;;;5.93;2.10;;;;;;;24.19;43.96;100044.66;5068192;28;20024;-53
2022/06/10 11:07:19;;;;;;;9.70;2.03;;;;;;;24.74;41.88;100046.25;5044981;28;20031;-57
2022/06/10 11:09:46;;;;;;;7.88;2.15;;;;;;;24.68;41.79;100048.28;5045292;28;20541;-54
2022/06/10 11:12:17;;;;;;;7.50;2.08;;;;;;;24.39;43.03;100042.50;5046060;28;20034;-54
2022/06/10 11:14:42;;;;;;;7.57;1.98;;;;;;;25.61;38.99;100036.22;5037219;28;20583;-54
2022/06/10 11:17:11;;;;;;;8.85;2.40;;;;;;;24.01;41.39;100042.91;5028158;28;20033;-54
2022/06/10 11:19:37;;;;;;;11.23;2.40;;;;;;;25.04;41.99;100035.50;5047275;28;20372;-56
2022/06/10 11:22:02;;;;;;;6.38;1.90;;;;;;;23.75;42.23;100040.81;5044965;28;20060;-53
2022/06/10 11:24:37;;;;;;;6.70;2.03;;;;;;;23.45;44.18;100040.38;5046835;28;20028;-53
2022/06/10 11:27:22;;;;;;;8.52;2.25;;;;;;;24.52;42.57;100034.22;5041332;28;20032;-57
2022/06/10 11:30:03;;;;;;;5.82;2.13;;;;;;;23.45;44.71;100036.84;5044895;28;20129;-51
2022/06/10 11:32:35;;;;;;;6.53;1.90;;;;;;;23.69;44.07;100025.63;5046507;28;20040;-53
2022/06/10 11:35:03;;;;;;;5.45;1.95;;;;;;;24.67;41.83;100022.03;5043478;28;20036;-53
2022/06/10 11:37:33;;;;;;;9.23;2.20;;;;;;;24.36;43.04;100021.22;5043033;28;20468;-53
2022/06/10 11:40:15;;;;;;;10.77;2.55;;;;;;;24.95;43.55;100021.78;5046874;28;20446;-53
2022/06/10 11:42:54;;;;;;;6.93;2.10;;;;;;;25.51;42.85;100022.00;5033976;28;20499;-54
2022/06/10 11:45:26;;;;;;;9.43;2.07;;;;;;;23.85;45.20;100020.59;5028531;28;20063;-53
2022/06/10 11:48:16;;;;;;;9.25;2.35;;;;;;;24.50;46.15;100019.22;5038742;28;20377;-54